sensor_id;sensor_type;location;lat;lon;timestamp;P1;durP1;ratioP1;P2;durP2;ratioP2
13374;SDS011;6756;51.354;15.754;2024-01-15T00:00:17;15.40;;;9.60;;
13374;SDS011;6756;51.354;15.754;2024-01-15T00:04:18;15.53;;;8.87;;
13374;SDS011;6756;51.354;15.754;2024-01-15T00:08:18;12.77;;;8.30;;
13374;SDS011;6756;51.354;15.754;2024-01-15T00:12:19;16.43;;;9.37;;
13374;SDS011;6756;51.354;15.754;2024-01-15T00:16:20;16.80;;;9.20;;
13374;SDS011;6756;51.354;15.754;2024-01-15T00:20:20;14.67;;;8.20;;
13374;SDS011;6756;51.354;15.754;2024-01-15T00:24:21;16.43;;;8.67;;
13374;SDS011;6756;51.354;15.754;2024-01-15T00:28:22;17.10;;;8.83;;
13374;SDS011;6756;51.354;15.754;2024-01-15T00:32:23;13.97;;;8.53;;
13374;SDS011;6756;51.354;15.754;2024-01-15T00:36:23;13.00;;;8.10;;
13374;SDS011;6756;51.354;15.754;2024-01-15T00:40:24;12.47;;;7.73;;
13374;SDS011;6756;51.354;15.754;2024-01-15T00:44:25;14.37;;;8.17;;
13374;SDS011;6756;51.354;15.754;2024-01-15T00:48:26;13.93;;;9.20;;
13374;SDS011;6756;51.354;15.754;2024-01-15T00:52:27;13.43;;;8.47;;
13374;SDS011;6756;51.354;15.754;2024-01-15T00:56:27;14.43;;;8.73;;
13374;SDS011;6756;51.354;15.754;2024-01-15T01:00:28;15.40;;;8.53;;
13374;SDS011;6756;51.354;15.754;2024-01-15T01:04:29;12.27;;;8.03;;
13374;SDS011;6756;51.354;15.754;2024-01-15T01:08:30;12.77;;;8.47;;
13374;SDS011;6756;51.354;15.754;2024-01-15T01:12:31;16.37;;;9.67;;
13374;SDS011;6756;51.354;15.754;2024-01-15T01:16:31;13.87;;;9.00;;
13374;SDS011;6756;51.354;15.754;2024-01-15T01:20:38;13.73;;;8.43;;
13374;SDS011;6756;51.354;15.754;2024-01-15T01:24:39;13.27;;;8.83;;
13374;SDS011;6756;51.354;15.754;2024-01-15T01:28:40;14.50;;;9.00;;
13374;SDS011;6756;51.354;15.754;2024-01-15T01:32:40;11.77;;;8.30;;
13374;SDS011;6756;51.354;15.754;2024-01-15T01:36:44;15.07;;;9.07;;
13374;SDS011;6756;51.354;15.754;2024-01-15T01:40:45;15.50;;;8.07;;
13374;SDS011;6756;51.354;15.754;2024-01-15T01:44:45;16.73;;;9.50;;
13374;SDS011;6756;51.354;15.754;2024-01-15T01:48:46;15.33;;;9.73;;
13374;SDS011;6756;51.354;15.754;2024-01-15T01:52:47;19.10;;;10.03;;
13374;SDS011;6756;51.354;15.754;2024-01-15T01:56:49;14.30;;;8.90;;
13374;SDS011;6756;51.354;15.754;2024-01-15T02:00:51;17.93;;;10.07;;
13374;SDS011;6756;51.354;15.754;2024-01-15T02:04:51;16.57;;;9.97;;
13374;SDS011;6756;51.354;15.754;2024-01-15T02:08:52;13.53;;;9.43;;
13374;SDS011;6756;51.354;15.754;2024-01-15T02:12:53;14.47;;;10.23;;
13374;SDS011;6756;51.354;15.754;2024-01-15T02:16:54;16.03;;;10.23;;
13374;SDS011;6756;51.354;15.754;2024-01-15T02:20:55;16.23;;;10.33;;
13374;SDS011;6756;51.354;15.754;2024-01-15T02:24:55;14.63;;;9.57;;
13374;SDS011;6756;51.354;15.754;2024-01-15T02:28:56;16.53;;;10.40;;
13374;SDS011;6756;51.354;15.754;2024-01-15T02:32:57;15.10;;;10.83;;
13374;SDS011;6756;51.354;15.754;2024-01-15T02:36:58;15.03;;;10.00;;
13374;SDS011;6756;51.354;15.754;2024-01-15T02:40:58;15.33;;;9.80;;
13374;SDS011;6756;51.354;15.754;2024-01-15T02:44:59;16.27;;;10.77;;
13374;SDS011;6756;51.354;15.754;2024-01-15T02:49:00;15.53;;;9.27;;
13374;SDS011;6756;51.354;15.754;2024-01-15T02:53:04;16.03;;;9.57;;
13374;SDS011;6756;51.354;15.754;2024-01-15T02:57:05;18.00;;;9.70;;
13374;SDS011;6756;51.354;15.754;2024-01-15T03:01:05;16.77;;;9.53;;
13374;SDS011;6756;51.354;15.754;2024-01-15T03:05:15;14.17;;;9.13;;
13374;SDS011;6756;51.354;15.754;2024-01-15T03:09:16;13.47;;;9.10;;
13374;SDS011;6756;51.354;15.754;2024-01-15T03:13:16;14.43;;;8.77;;
13374;SDS011;6756;51.354;15.754;2024-01-15T03:17:19;14.50;;;9.60;;
13374;SDS011;6756;51.354;15.754;2024-01-15T03:21:20;15.90;;;9.13;;
13374;SDS011;6756;51.354;15.754;2024-01-15T03:25:20;11.80;;;8.03;;
13374;SDS011;6756;51.354;15.754;2024-01-15T03:29:21;13.03;;;8.37;;
13374;SDS011;6756;51.354;15.754;2024-01-15T03:33:22;12.87;;;8.37;;
13374;SDS011;6756;51.354;15.754;2024-01-15T03:37:23;12.27;;;7.77;;
13374;SDS011;6756;51.354;15.754;2024-01-15T03:41:23;12.07;;;7.70;;
13374;SDS011;6756;51.354;15.754;2024-01-15T03:45:24;11.73;;;7.80;;
13374;SDS011;6756;51.354;15.754;2024-01-15T03:49:25;14.20;;;8.50;;
13374;SDS011;6756;51.354;15.754;2024-01-15T03:53:26;11.93;;;8.27;;
13374;SDS011;6756;51.354;15.754;2024-01-15T03:57:26;11.77;;;7.97;;
13374;SDS011;6756;51.354;15.754;2024-01-15T04:01:27;12.63;;;7.53;;
13374;SDS011;6756;51.354;15.754;2024-01-15T04:05:28;10.83;;;7.23;;
13374;SDS011;6756;51.354;15.754;2024-01-15T04:09:29;13.07;;;8.10;;
13374;SDS011;6756;51.354;15.754;2024-01-15T04:13:32;12.63;;;7.80;;
13374;SDS011;6756;51.354;15.754;2024-01-15T04:17:33;10.40;;;7.30;;
13374;SDS011;6756;51.354;15.754;2024-01-15T04:21:34;10.90;;;7.97;;
13374;SDS011;6756;51.354;15.754;2024-01-15T04:25:34;14.13;;;8.77;;
13374;SDS011;6756;51.354;15.754;2024-01-15T04:29:37;12.03;;;7.80;;
13374;SDS011;6756;51.354;15.754;2024-01-15T04:33:39;10.43;;;7.30;;
13374;SDS011;6756;51.354;15.754;2024-01-15T04:37:40;11.10;;;7.17;;
13374;SDS011;6756;51.354;15.754;2024-01-15T04:41:40;12.77;;;7.70;;
13374;SDS011;6756;51.354;15.754;2024-01-15T04:45:41;12.53;;;7.47;;
13374;SDS011;6756;51.354;15.754;2024-01-15T04:49:42;14.20;;;7.73;;
13374;SDS011;6756;51.354;15.754;2024-01-15T04:53:43;11.33;;;7.60;;
13374;SDS011;6756;51.354;15.754;2024-01-15T04:57:44;11.43;;;7.03;;
13374;SDS011;6756;51.354;15.754;2024-01-15T05:01:45;11.10;;;7.07;;
13374;SDS011;6756;51.354;15.754;2024-01-15T05:05:46;13.07;;;7.97;;
13374;SDS011;6756;51.354;15.754;2024-01-15T05:09:46;11.70;;;7.13;;
13374;SDS011;6756;51.354;15.754;2024-01-15T05:13:47;13.00;;;7.67;;
13374;SDS011;6756;51.354;15.754;2024-01-15T05:17:48;13.03;;;7.93;;
13374;SDS011;6756;51.354;15.754;2024-01-15T05:21:48;12.53;;;7.83;;
13374;SDS011;6756;51.354;15.754;2024-01-15T05:25:49;12.77;;;7.03;;
13374;SDS011;6756;51.354;15.754;2024-01-15T05:29:50;11.30;;;6.93;;
13374;SDS011;6756;51.354;15.754;2024-01-15T05:33:51;11.17;;;7.10;;
13374;SDS011;6756;51.354;15.754;2024-01-15T05:37:52;12.00;;;7.10;;
13374;SDS011;6756;51.354;15.754;2024-01-15T05:41:52;12.23;;;6.90;;
13374;SDS011;6756;51.354;15.754;2024-01-15T05:45:53;12.93;;;7.80;;
13374;SDS011;6756;51.354;15.754;2024-01-15T05:49:54;10.50;;;7.57;;
13374;SDS011;6756;51.354;15.754;2024-01-15T05:53:55;10.83;;;6.87;;
13374;SDS011;6756;51.354;15.754;2024-01-15T05:57:56;9.43;;;6.00;;
13374;SDS011;6756;51.354;15.754;2024-01-15T06:01:56;13.93;;;7.50;;
13374;SDS011;6756;51.354;15.754;2024-01-15T06:05:57;11.77;;;7.37;;
13374;SDS011;6756;51.354;15.754;2024-01-15T06:09:58;12.53;;;7.20;;
13374;SDS011;6756;51.354;15.754;2024-01-15T06:13:58;13.17;;;7.60;;
13374;SDS011;6756;51.354;15.754;2024-01-15T06:18:02;10.97;;;7.57;;
13374;SDS011;6756;51.354;15.754;2024-01-15T06:22:03;12.93;;;7.70;;
13374;SDS011;6756;51.354;15.754;2024-01-15T06:26:04;14.07;;;7.40;;
13374;SDS011;6756;51.354;15.754;2024-01-15T06:30:05;10.50;;;6.50;;
13374;SDS011;6756;51.354;15.754;2024-01-15T06:34:06;12.73;;;8.47;;
13374;SDS011;6756;51.354;15.754;2024-01-15T06:38:10;11.70;;;8.00;;
13374;SDS011;6756;51.354;15.754;2024-01-15T06:42:11;11.87;;;7.10;;
13374;SDS011;6756;51.354;15.754;2024-01-15T06:46:12;11.73;;;7.47;;
13374;SDS011;6756;51.354;15.754;2024-01-15T06:50:12;10.77;;;7.23;;
13374;SDS011;6756;51.354;15.754;2024-01-15T06:54:13;10.77;;;7.03;;
13374;SDS011;6756;51.354;15.754;2024-01-15T06:58:14;11.00;;;7.27;;
13374;SDS011;6756;51.354;15.754;2024-01-15T07:02:14;10.23;;;6.20;;
13374;SDS011;6756;51.354;15.754;2024-01-15T07:06:15;10.17;;;6.37;;
13374;SDS011;6756;51.354;15.754;2024-01-15T07:10:17;10.53;;;6.63;;
13374;SDS011;6756;51.354;15.754;2024-01-15T07:14:17;12.77;;;6.87;;
13374;SDS011;6756;51.354;15.754;2024-01-15T07:18:18;9.60;;;6.27;;
13374;SDS011;6756;51.354;15.754;2024-01-15T07:22:19;9.30;;;6.30;;
13374;SDS011;6756;51.354;15.754;2024-01-15T07:26:20;11.90;;;5.83;;
13374;SDS011;6756;51.354;15.754;2024-01-15T07:30:20;11.63;;;6.73;;
13374;SDS011;6756;51.354;15.754;2024-01-15T07:34:22;9.93;;;6.40;;
13374;SDS011;6756;51.354;15.754;2024-01-15T07:38:22;11.60;;;6.50;;
13374;SDS011;6756;51.354;15.754;2024-01-15T07:42:23;8.90;;;5.70;;
13374;SDS011;6756;51.354;15.754;2024-01-15T07:46:24;10.43;;;6.27;;
13374;SDS011;6756;51.354;15.754;2024-01-15T07:50:25;10.67;;;5.90;;
13374;SDS011;6756;51.354;15.754;2024-01-15T07:54:25;10.00;;;5.80;;
13374;SDS011;6756;51.354;15.754;2024-01-15T07:58:27;11.27;;;6.23;;
13374;SDS011;6756;51.354;15.754;2024-01-15T08:02:27;13.77;;;6.57;;
13374;SDS011;6756;51.354;15.754;2024-01-15T08:06:28;10.00;;;6.23;;
13374;SDS011;6756;51.354;15.754;2024-01-15T08:10:29;11.97;;;6.63;;
13374;SDS011;6756;51.354;15.754;2024-01-15T08:14:30;9.20;;;5.83;;
13374;SDS011;6756;51.354;15.754;2024-01-15T08:18:30;10.00;;;6.47;;
13374;SDS011;6756;51.354;15.754;2024-01-15T08:22:31;11.93;;;7.03;;
13374;SDS011;6756;51.354;15.754;2024-01-15T08:26:32;12.47;;;6.93;;
13374;SDS011;6756;51.354;15.754;2024-01-15T08:30:33;11.27;;;5.67;;
13374;SDS011;6756;51.354;15.754;2024-01-15T08:34:33;16.20;;;6.90;;
13374;SDS011;6756;51.354;15.754;2024-01-15T08:38:34;9.57;;;6.00;;
13374;SDS011;6756;51.354;15.754;2024-01-15T08:42:35;7.27;;;4.93;;
13374;SDS011;6756;51.354;15.754;2024-01-15T08:46:36;9.30;;;5.73;;
13374;SDS011;6756;51.354;15.754;2024-01-15T08:50:37;9.47;;;5.53;;
13374;SDS011;6756;51.354;15.754;2024-01-15T08:54:38;9.57;;;5.17;;
13374;SDS011;6756;51.354;15.754;2024-01-15T08:58:39;8.43;;;4.87;;
13374;SDS011;6756;51.354;15.754;2024-01-15T09:02:40;9.87;;;4.70;;
13374;SDS011;6756;51.354;15.754;2024-01-15T09:06:40;9.63;;;5.47;;
13374;SDS011;6756;51.354;15.754;2024-01-15T09:10:45;8.53;;;4.47;;
13374;SDS011;6756;51.354;15.754;2024-01-15T09:14:46;9.70;;;4.73;;
13374;SDS011;6756;51.354;15.754;2024-01-15T09:18:47;7.93;;;4.23;;
13374;SDS011;6756;51.354;15.754;2024-01-15T09:22:48;9.70;;;5.07;;
13374;SDS011;6756;51.354;15.754;2024-01-15T09:26:48;7.60;;;4.30;;
13374;SDS011;6756;51.354;15.754;2024-01-15T09:30:49;7.73;;;4.80;;
13374;SDS011;6756;51.354;15.754;2024-01-15T09:34:50;7.43;;;4.10;;
13374;SDS011;6756;51.354;15.754;2024-01-15T09:38:51;11.53;;;4.33;;
13374;SDS011;6756;51.354;15.754;2024-01-15T09:42:52;6.80;;;3.70;;
13374;SDS011;6756;51.354;15.754;2024-01-15T09:46:52;8.97;;;4.60;;
13374;SDS011;6756;51.354;15.754;2024-01-15T09:50:55;6.13;;;4.33;;
13374;SDS011;6756;51.354;15.754;2024-01-15T09:54:59;15.77;;;9.10;;
13374;SDS011;6756;51.354;15.754;2024-01-15T09:59:03;10.27;;;4.73;;
13374;SDS011;6756;51.354;15.754;2024-01-15T10:03:04;7.30;;;4.43;;
13374;SDS011;6756;51.354;15.754;2024-01-15T10:07:06;6.40;;;4.53;;
13374;SDS011;6756;51.354;15.754;2024-01-15T10:11:11;8.57;;;5.03;;
13374;SDS011;6756;51.354;15.754;2024-01-15T10:15:11;7.47;;;4.87;;
13374;SDS011;6756;51.354;15.754;2024-01-15T10:19:12;9.37;;;5.33;;
13374;SDS011;6756;51.354;15.754;2024-01-15T10:23:14;10.67;;;4.57;;
13374;SDS011;6756;51.354;15.754;2024-01-15T10:27:15;7.10;;;5.03;;
13374;SDS011;6756;51.354;15.754;2024-01-15T10:31:16;8.53;;;5.30;;
13374;SDS011;6756;51.354;15.754;2024-01-15T10:35:21;10.53;;;5.37;;
13374;SDS011;6756;51.354;15.754;2024-01-15T10:39:22;28.33;;;12.73;;
13374;SDS011;6756;51.354;15.754;2024-01-15T10:43:23;11.60;;;6.87;;
13374;SDS011;6756;51.354;15.754;2024-01-15T10:47:24;10.47;;;6.47;;
13374;SDS011;6756;51.354;15.754;2024-01-15T10:51:25;11.60;;;6.07;;
13374;SDS011;6756;51.354;15.754;2024-01-15T10:55:26;5.90;;;4.83;;
13374;SDS011;6756;51.354;15.754;2024-01-15T10:59:28;6.13;;;4.30;;
13374;SDS011;6756;51.354;15.754;2024-01-15T11:03:29;8.03;;;4.90;;
13374;SDS011;6756;51.354;15.754;2024-01-15T11:07:30;9.50;;;4.40;;
13374;SDS011;6756;51.354;15.754;2024-01-15T11:11:31;6.53;;;4.30;;
13374;SDS011;6756;51.354;15.754;2024-01-15T11:20:22;7.17;;;3.87;;
13374;SDS011;6756;51.354;15.754;2024-01-15T11:24:34;9.50;;;4.63;;
13374;SDS011;6756;51.354;15.754;2024-01-15T11:28:47;5.90;;;3.67;;
13374;SDS011;6756;51.354;15.754;2024-01-15T11:32:48;8.03;;;4.33;;
13374;SDS011;6756;51.354;15.754;2024-01-15T11:40:53;16.63;;;7.83;;
13374;SDS011;6756;51.354;15.754;2024-01-15T11:44:54;8.27;;;4.97;;
13374;SDS011;6756;51.354;15.754;2024-01-15T11:48:56;10.73;;;6.23;;
13374;SDS011;6756;51.354;15.754;2024-01-15T11:53:04;10.27;;;5.37;;
13374;SDS011;6756;51.354;15.754;2024-01-15T11:57:17;10.23;;;6.07;;
13374;SDS011;6756;51.354;15.754;2024-01-15T12:01:24;8.07;;;4.23;;
13374;SDS011;6756;51.354;15.754;2024-01-15T12:05:25;6.30;;;3.70;;
13374;SDS011;6756;51.354;15.754;2024-01-15T12:09:26;5.97;;;4.03;;
13374;SDS011;6756;51.354;15.754;2024-01-15T12:13:27;6.50;;;3.97;;
13374;SDS011;6756;51.354;15.754;2024-01-15T12:17:28;6.43;;;4.03;;
13374;SDS011;6756;51.354;15.754;2024-01-15T12:21:29;5.07;;;3.37;;
13374;SDS011;6756;51.354;15.754;2024-01-15T12:25:33;9.30;;;4.40;;
13374;SDS011;6756;51.354;15.754;2024-01-15T12:29:34;6.00;;;4.27;;
13374;SDS011;6756;51.354;15.754;2024-01-15T12:33:35;7.43;;;3.63;;
13374;SDS011;6756;51.354;15.754;2024-01-15T12:37:36;6.00;;;3.50;;
13374;SDS011;6756;51.354;15.754;2024-01-15T12:41:38;10.90;;;5.20;;
13374;SDS011;6756;51.354;15.754;2024-01-15T12:45:39;8.80;;;5.17;;
13374;SDS011;6756;51.354;15.754;2024-01-15T12:49:40;6.53;;;3.20;;
13374;SDS011;6756;51.354;15.754;2024-01-15T12:53:41;6.23;;;4.00;;
13374;SDS011;6756;51.354;15.754;2024-01-15T12:57:42;7.00;;;3.67;;
13374;SDS011;6756;51.354;15.754;2024-01-15T13:01:43;4.80;;;3.17;;
13374;SDS011;6756;51.354;15.754;2024-01-15T13:05:47;5.60;;;3.57;;
13374;SDS011;6756;51.354;15.754;2024-01-15T13:09:48;6.07;;;3.27;;
13374;SDS011;6756;51.354;15.754;2024-01-15T13:13:53;7.20;;;3.13;;
13374;SDS011;6756;51.354;15.754;2024-01-15T13:17:54;8.50;;;3.70;;
13374;SDS011;6756;51.354;15.754;2024-01-15T13:21:55;6.93;;;3.10;;
13374;SDS011;6756;51.354;15.754;2024-01-15T13:25:58;5.13;;;3.27;;
13374;SDS011;6756;51.354;15.754;2024-01-15T13:29:59;6.70;;;3.67;;
13374;SDS011;6756;51.354;15.754;2024-01-15T13:34:00;6.63;;;3.47;;
13374;SDS011;6756;51.354;15.754;2024-01-15T13:38:01;7.17;;;3.00;;
13374;SDS011;6756;51.354;15.754;2024-01-15T13:42:02;4.63;;;2.90;;
13374;SDS011;6756;51.354;15.754;2024-01-15T13:46:03;5.77;;;3.40;;
13374;SDS011;6756;51.354;15.754;2024-01-15T13:50:04;23.20;;;7.60;;
13374;SDS011;6756;51.354;15.754;2024-01-15T13:54:05;34.77;;;11.40;;
13374;SDS011;6756;51.354;15.754;2024-01-15T13:58:07;41.87;;;13.03;;
13374;SDS011;6756;51.354;15.754;2024-01-15T14:02:08;6.97;;;3.97;;
13374;SDS011;6756;51.354;15.754;2024-01-15T14:06:09;7.87;;;4.17;;
13374;SDS011;6756;51.354;15.754;2024-01-15T14:10:10;7.07;;;3.87;;
13374;SDS011;6756;51.354;15.754;2024-01-15T14:14:11;5.73;;;3.67;;
13374;SDS011;6756;51.354;15.754;2024-01-15T14:18:12;6.30;;;3.83;;
13374;SDS011;6756;51.354;15.754;2024-01-15T14:22:13;7.27;;;4.23;;
13374;SDS011;6756;51.354;15.754;2024-01-15T14:26:14;4.87;;;3.73;;
13374;SDS011;6756;51.354;15.754;2024-01-15T14:30:15;6.87;;;3.50;;
13374;SDS011;6756;51.354;15.754;2024-01-15T14:34:16;4.87;;;3.17;;
13374;SDS011;6756;51.354;15.754;2024-01-15T14:38:18;6.07;;;3.47;;
13374;SDS011;6756;51.354;15.754;2024-01-15T14:42:19;7.03;;;3.97;;
13374;SDS011;6756;51.354;15.754;2024-01-15T14:46:20;4.77;;;3.07;;
13374;SDS011;6756;51.354;15.754;2024-01-15T14:50:21;5.27;;;3.97;;
13374;SDS011;6756;51.354;15.754;2024-01-15T14:54:23;8.07;;;3.70;;
13374;SDS011;6756;51.354;15.754;2024-01-15T14:58:24;7.43;;;3.97;;
13374;SDS011;6756;51.354;15.754;2024-01-15T15:02:27;7.47;;;4.30;;
13374;SDS011;6756;51.354;15.754;2024-01-15T15:06:28;6.80;;;3.77;;
13374;SDS011;6756;51.354;15.754;2024-01-15T15:10:29;8.40;;;4.30;;
13374;SDS011;6756;51.354;15.754;2024-01-15T15:14:30;6.80;;;4.60;;
13374;SDS011;6756;51.354;15.754;2024-01-15T15:18:37;9.47;;;4.57;;
13374;SDS011;6756;51.354;15.754;2024-01-15T15:22:38;6.87;;;4.33;;
13374;SDS011;6756;51.354;15.754;2024-01-15T15:26:39;7.27;;;4.63;;
13374;SDS011;6756;51.354;15.754;2024-01-15T15:30:40;8.20;;;4.67;;
13374;SDS011;6756;51.354;15.754;2024-01-15T15:34:40;10.77;;;5.40;;
13374;SDS011;6756;51.354;15.754;2024-01-15T15:38:41;6.53;;;4.73;;
13374;SDS011;6756;51.354;15.754;2024-01-15T15:42:45;10.47;;;5.07;;
13374;SDS011;6756;51.354;15.754;2024-01-15T15:46:46;8.77;;;6.00;;
13374;SDS011;6756;51.354;15.754;2024-01-15T15:50:46;10.33;;;5.53;;
13374;SDS011;6756;51.354;15.754;2024-01-15T15:54:47;7.97;;;5.50;;
13374;SDS011;6756;51.354;15.754;2024-01-15T15:58:48;6.73;;;4.83;;
13374;SDS011;6756;51.354;15.754;2024-01-15T16:02:49;9.47;;;5.40;;
13374;SDS011;6756;51.354;15.754;2024-01-15T16:06:50;18.27;;;7.00;;
13374;SDS011;6756;51.354;15.754;2024-01-15T16:10:51;30.70;;;9.90;;
13374;SDS011;6756;51.354;15.754;2024-01-15T16:14:52;11.20;;;6.33;;
13374;SDS011;6756;51.354;15.754;2024-01-15T16:18:52;7.53;;;5.73;;
13374;SDS011;6756;51.354;15.754;2024-01-15T16:22:53;8.60;;;5.17;;
13374;SDS011;6756;51.354;15.754;2024-01-15T16:26:54;11.07;;;5.70;;
13374;SDS011;6756;51.354;15.754;2024-01-15T16:30:54;9.00;;;5.53;;
13374;SDS011;6756;51.354;15.754;2024-01-15T16:34:55;10.03;;;5.60;;
13374;SDS011;6756;51.354;15.754;2024-01-15T16:38:56;10.00;;;5.77;;
13374;SDS011;6756;51.354;15.754;2024-01-15T16:42:57;9.27;;;5.77;;
13374;SDS011;6756;51.354;15.754;2024-01-15T16:46:57;11.07;;;5.97;;
13374;SDS011;6756;51.354;15.754;2024-01-15T16:51:00;8.17;;;5.30;;
13374;SDS011;6756;51.354;15.754;2024-01-15T16:55:01;13.23;;;6.00;;
13374;SDS011;6756;51.354;15.754;2024-01-15T16:59:03;9.20;;;6.07;;
13374;SDS011;6756;51.354;15.754;2024-01-15T17:03:03;7.37;;;5.30;;
13374;SDS011;6756;51.354;15.754;2024-01-15T17:07:04;9.70;;;5.57;;
13374;SDS011;6756;51.354;15.754;2024-01-15T17:11:05;8.83;;;5.87;;
13374;SDS011;6756;51.354;15.754;2024-01-15T17:15:06;9.43;;;5.77;;
13374;SDS011;6756;51.354;15.754;2024-01-15T17:19:07;7.70;;;5.63;;
13374;SDS011;6756;51.354;15.754;2024-01-15T17:23:08;15.23;;;7.47;;
13374;SDS011;6756;51.354;15.754;2024-01-15T17:27:09;14.70;;;7.37;;
13374;SDS011;6756;51.354;15.754;2024-01-15T17:31:10;12.17;;;6.40;;
13374;SDS011;6756;51.354;15.754;2024-01-15T17:35:10;26.73;;;11.30;;
13374;SDS011;6756;51.354;15.754;2024-01-15T17:39:11;27.23;;;11.33;;
13374;SDS011;6756;51.354;15.754;2024-01-15T17:43:13;9.60;;;6.73;;
13374;SDS011;6756;51.354;15.754;2024-01-15T17:47:16;10.87;;;6.97;;
13374;SDS011;6756;51.354;15.754;2024-01-15T17:51:20;9.87;;;6.13;;
13374;SDS011;6756;51.354;15.754;2024-01-15T17:55:21;11.27;;;6.37;;
13374;SDS011;6756;51.354;15.754;2024-01-15T17:59:23;9.23;;;6.47;;
13374;SDS011;6756;51.354;15.754;2024-01-15T18:03:23;7.40;;;5.47;;
13374;SDS011;6756;51.354;15.754;2024-01-15T18:07:24;10.00;;;5.53;;
13374;SDS011;6756;51.354;15.754;2024-01-15T18:11:26;9.10;;;5.33;;
13374;SDS011;6756;51.354;15.754;2024-01-15T18:15:29;8.40;;;5.47;;
13374;SDS011;6756;51.354;15.754;2024-01-15T18:19:30;9.10;;;5.67;;
13374;SDS011;6756;51.354;15.754;2024-01-15T18:23:31;8.43;;;5.70;;
13374;SDS011;6756;51.354;15.754;2024-01-15T18:27:33;8.97;;;5.63;;
13374;SDS011;6756;51.354;15.754;2024-01-15T18:31:34;8.20;;;5.57;;
13374;SDS011;6756;51.354;15.754;2024-01-15T18:35:35;11.30;;;6.43;;
13374;SDS011;6756;51.354;15.754;2024-01-15T18:39:37;10.67;;;6.57;;
13374;SDS011;6756;51.354;15.754;2024-01-15T18:43:39;11.67;;;5.90;;
13374;SDS011;6756;51.354;15.754;2024-01-15T18:47:39;9.43;;;5.33;;
13374;SDS011;6756;51.354;15.754;2024-01-15T18:51:40;7.20;;;5.00;;
13374;SDS011;6756;51.354;15.754;2024-01-15T18:55:41;9.03;;;5.10;;
13374;SDS011;6756;51.354;15.754;2024-01-15T18:59:42;9.93;;;6.63;;
13374;SDS011;6756;51.354;15.754;2024-01-15T19:03:46;10.40;;;5.97;;
13374;SDS011;6756;51.354;15.754;2024-01-15T19:07:47;11.37;;;6.47;;
13374;SDS011;6756;51.354;15.754;2024-01-15T19:11:48;8.60;;;6.37;;
13374;SDS011;6756;51.354;15.754;2024-01-15T19:15:49;8.97;;;5.90;;
13374;SDS011;6756;51.354;15.754;2024-01-15T19:19:49;9.00;;;6.23;;
13374;SDS011;6756;51.354;15.754;2024-01-15T19:23:51;9.90;;;6.27;;
13374;SDS011;6756;51.354;15.754;2024-01-15T19:27:51;9.27;;;5.93;;
13374;SDS011;6756;51.354;15.754;2024-01-15T19:31:53;9.73;;;5.83;;
13374;SDS011;6756;51.354;15.754;2024-01-15T19:35:54;8.00;;;5.43;;
13374;SDS011;6756;51.354;15.754;2024-01-15T19:39:55;9.37;;;6.07;;
13374;SDS011;6756;51.354;15.754;2024-01-15T19:43:57;7.33;;;5.40;;
13374;SDS011;6756;51.354;15.754;2024-01-15T19:47:58;8.77;;;5.63;;
13374;SDS011;6756;51.354;15.754;2024-01-15T19:52:00;8.97;;;5.90;;
13374;SDS011;6756;51.354;15.754;2024-01-15T19:56:00;9.53;;;6.03;;
13374;SDS011;6756;51.354;15.754;2024-01-15T20:00:02;9.73;;;6.20;;
13374;SDS011;6756;51.354;15.754;2024-01-15T20:04:03;10.60;;;6.30;;
13374;SDS011;6756;51.354;15.754;2024-01-15T20:08:05;7.33;;;5.30;;
13374;SDS011;6756;51.354;15.754;2024-01-15T20:12:06;9.50;;;5.13;;
13374;SDS011;6756;51.354;15.754;2024-01-15T20:16:08;7.83;;;5.80;;
13374;SDS011;6756;51.354;15.754;2024-01-15T20:20:11;10.57;;;6.17;;
13374;SDS011;6756;51.354;15.754;2024-01-15T20:24:12;7.63;;;5.30;;
13374;SDS011;6756;51.354;15.754;2024-01-15T20:28:13;9.73;;;5.70;;
13374;SDS011;6756;51.354;15.754;2024-01-15T20:32:13;8.10;;;5.40;;
13374;SDS011;6756;51.354;15.754;2024-01-15T20:36:18;7.20;;;5.37;;
13374;SDS011;6756;51.354;15.754;2024-01-15T20:40:19;9.73;;;6.27;;
13374;SDS011;6756;51.354;15.754;2024-01-15T20:44:19;9.27;;;5.57;;
13374;SDS011;6756;51.354;15.754;2024-01-15T20:48:21;9.10;;;5.73;;
13374;SDS011;6756;51.354;15.754;2024-01-15T20:52:23;10.10;;;5.53;;
13374;SDS011;6756;51.354;15.754;2024-01-15T20:56:25;9.10;;;6.20;;
13374;SDS011;6756;51.354;15.754;2024-01-15T21:00:26;7.50;;;5.60;;
13374;SDS011;6756;51.354;15.754;2024-01-15T21:04:27;7.87;;;5.57;;
13374;SDS011;6756;51.354;15.754;2024-01-15T21:08:28;10.60;;;6.10;;
13374;SDS011;6756;51.354;15.754;2024-01-15T21:12:31;7.23;;;5.50;;
13374;SDS011;6756;51.354;15.754;2024-01-15T21:16:31;9.03;;;5.20;;
13374;SDS011;6756;51.354;15.754;2024-01-15T21:20:32;8.47;;;5.63;;
13374;SDS011;6756;51.354;15.754;2024-01-15T21:24:33;10.37;;;5.57;;
13374;SDS011;6756;51.354;15.754;2024-01-15T21:28:34;10.23;;;5.37;;
13374;SDS011;6756;51.354;15.754;2024-01-15T21:32:35;6.17;;;4.70;;
13374;SDS011;6756;51.354;15.754;2024-01-15T21:36:36;7.20;;;5.10;;
13374;SDS011;6756;51.354;15.754;2024-01-15T21:40:37;8.77;;;5.50;;
13374;SDS011;6756;51.354;15.754;2024-01-15T21:44:38;11.40;;;6.20;;
13374;SDS011;6756;51.354;15.754;2024-01-15T21:48:39;8.67;;;5.10;;
13374;SDS011;6756;51.354;15.754;2024-01-15T21:52:40;8.30;;;5.47;;
13374;SDS011;6756;51.354;15.754;2024-01-15T21:56:41;9.17;;;5.37;;
13374;SDS011;6756;51.354;15.754;2024-01-15T22:00:42;6.60;;;4.87;;
13374;SDS011;6756;51.354;15.754;2024-01-15T22:04:42;8.73;;;5.40;;
13374;SDS011;6756;51.354;15.754;2024-01-15T22:08:43;8.70;;;5.23;;
13374;SDS011;6756;51.354;15.754;2024-01-15T22:12:45;7.47;;;5.17;;
13374;SDS011;6756;51.354;15.754;2024-01-15T22:16:46;8.60;;;5.37;;
13374;SDS011;6756;51.354;15.754;2024-01-15T22:20:46;6.83;;;4.93;;
13374;SDS011;6756;51.354;15.754;2024-01-15T22:24:47;7.43;;;5.27;;
13374;SDS011;6756;51.354;15.754;2024-01-15T22:28:48;8.10;;;4.87;;
13374;SDS011;6756;51.354;15.754;2024-01-15T22:32:49;6.40;;;5.00;;
13374;SDS011;6756;51.354;15.754;2024-01-15T22:36:49;8.67;;;5.20;;
13374;SDS011;6756;51.354;15.754;2024-01-15T22:40:50;8.30;;;5.23;;
13374;SDS011;6756;51.354;15.754;2024-01-15T22:44:51;6.87;;;5.23;;
13374;SDS011;6756;51.354;15.754;2024-01-15T22:48:52;6.77;;;4.53;;
13374;SDS011;6756;51.354;15.754;2024-01-15T22:52:52;6.77;;;4.40;;
13374;SDS011;6756;51.354;15.754;2024-01-15T22:56:53;6.40;;;4.63;;
13374;SDS011;6756;51.354;15.754;2024-01-15T23:00:54;6.30;;;4.57;;
13374;SDS011;6756;51.354;15.754;2024-01-15T23:04:55;5.40;;;3.80;;
13374;SDS011;6756;51.354;15.754;2024-01-15T23:08:56;5.47;;;4.33;;
13374;SDS011;6756;51.354;15.754;2024-01-15T23:12:59;6.90;;;3.60;;
13374;SDS011;6756;51.354;15.754;2024-01-15T23:17:00;4.60;;;3.43;;
13374;SDS011;6756;51.354;15.754;2024-01-15T23:21:01;5.07;;;3.30;;
13374;SDS011;6756;51.354;15.754;2024-01-15T23:25:02;4.97;;;2.87;;
13374;SDS011;6756;51.354;15.754;2024-01-15T23:29:03;4.20;;;3.00;;
13374;SDS011;6756;51.354;15.754;2024-01-15T23:33:04;3.53;;;2.93;;
13374;SDS011;6756;51.354;15.754;2024-01-15T23:37:10;4.73;;;2.20;;
13374;SDS011;6756;51.354;15.754;2024-01-15T23:41:18;4.27;;;2.10;;
13374;SDS011;6756;51.354;15.754;2024-01-15T23:45:19;3.83;;;2.07;;
13374;SDS011;6756;51.354;15.754;2024-01-15T23:49:20;5.53;;;1.97;;
13374;SDS011;6756;51.354;15.754;2024-01-15T23:53:24;4.77;;;2.50;;
13374;SDS011;6756;51.354;15.754;2024-01-15T23:57:25;3.53;;;1.73;;
